Time;durP1;ratioP1;P1;durP2;ratioP2;P2;SDS_P1;SDS_P2;PMS_P1;PMS_P2;Temp;Humidity;BMP_temperature;BMP_pressure;BME280_temperature;BME280_humidity;BME280_pressure;Samples;Min_cycle;Max_cycle;Signal;HPM_P1;HPM_P2
2022/05/25 00:02:10;;;;;;;9.88;4.93;;;;;;;15.60;100.00;100345.78;5006892;28;20052;-73
2022/05/25 00:04:35;;;;;;;19.08;6.43;;;;;;;15.48;100.00;100338.69;5009888;28;20029;-74
2022/05/25 00:07:01;;;;;;;9.07;5.10;;;;;;;15.54;100.00;100346.56;5010847;28;20493;-74
2022/05/25 00:09:27;;;;;;;11.00;4.68;;;;;;;15.31;100.00;100315.88;5010129;28;20030;-73
2022/05/25 00:11:53;;;;;;;11.63;5.00;;;;;;;15.17;100.00;100307.00;5007934;28;20873;-74
2022/05/25 00:14:18;;;;;;;10.48;4.85;;;;;;;15.26;100.00;100329.66;5012369;28;20447;-73
2022/05/25 00:16:44;;;;;;;10.48;5.65;;;;;;;15.12;100.00;100313.84;5012735;28;20061;-72
2022/05/25 00:21:54;;;;;;;7.78;4.60;;;;;;;15.18;100.00;100346.03;5012516;28;20033;-72
2022/05/25 00:24:20;;;;;;;9.13;5.47;;;;;;;15.17;100.00;100351.19;5012433;28;20030;-73
2022/05/25 00:26:45;;;;;;;8.80;5.43;;;;;;;15.13;100.00;100352.88;5012565;28;20473;-71
2022/05/25 00:29:11;;;;;;;8.63;5.22;;;;;;;14.94;100.00;100325.72;5012684;28;20054;-73
2022/05/25 00:31:36;;;;;;;11.00;5.07;;;;;;;15.10;100.00;100363.22;5012318;28;20038;-73
2022/05/25 00:34:02;;;;;;;8.52;5.38;;;;;;;15.13;100.00;100365.00;4994941;28;20692;-73
2022/05/25 00:36:28;;;;;;;10.73;5.43;;;;;;;15.08;100.00;100369.22;5012319;28;20030;-73
2022/05/25 00:38:53;;;;;;;9.90;5.40;;;;;;;15.01;100.00;100361.31;5011482;28;20045;-73
2022/05/25 00:41:23;;;;;;;11.02;5.45;;;;;;;15.00;100.00;100363.91;5012310;28;20025;-74
2022/05/25 00:43:49;;;;;;;9.85;4.70;;;;;;;14.93;100.00;100368.13;5012072;28;20554;-73
2022/05/25 00:46:17;;;;;;;7.57;5.00;;;;;;;14.91;100.00;100368.97;5011984;28;20029;-74
2022/05/25 00:48:56;;;;;;;11.82;5.57;;;;;;;14.83;100.00;100372.28;5012077;28;20109;-73
2022/05/25 00:51:28;;;;;;;10.27;5.43;;;;;;;14.40;100.00;100303.91;5012284;28;20026;-73
2022/05/25 00:54:04;;;;;;;10.00;5.55;;;;;;;14.80;100.00;100377.41;5012054;28;20037;-73
2022/05/25 00:56:32;;;;;;;11.45;5.47;;;;;;;14.66;100.00;100350.31;5012034;28;20117;-73
2022/05/25 00:59:15;;;;;;;13.73;5.90;;;;;;;14.81;100.00;100370.53;5011713;28;20049;-73
2022/05/25 01:01:41;;;;;;;11.80;6.30;;;;;;;14.86;100.00;100371.47;5012082;28;20040;-73
2022/05/25 01:04:08;;;;;;;11.13;5.90;;;;;;;14.81;100.00;100368.78;5011941;28;20044;-73
2022/05/25 01:06:48;;;;;;;10.77;5.88;;;;;;;14.80;100.00;100390.41;5011864;28;20061;-73
2022/05/25 01:09:40;;;;;;;10.70;6.18;;;;;;;14.71;100.00;100408.44;5011685;28;20514;-73
2022/05/25 01:12:20;;;;;;;10.77;6.45;;;;;;;14.73;100.00;100411.97;5011757;28;20527;-73
2022/05/25 01:14:54;;;;;;;11.00;6.10;;;;;;;14.75;100.00;100406.78;5011531;28;20547;-73
2022/05/25 01:18:03;;;;;;;10.63;6.53;;;;;;;14.80;100.00;100399.94;5011653;28;20034;-73
2022/05/25 01:20:52;;;;;;;15.32;6.68;;;;;;;14.80;100.00;100408.59;4931731;29;20102;-72
2022/05/25 01:23:38;;;;;;;8.77;6.20;;;;;;;14.81;100.00;100393.91;4931972;29;20028;-72
2022/05/25 01:26:34;;;;;;;16.13;6.50;;;;;;;14.81;100.00;100406.91;4931641;29;20785;-72
2022/05/25 01:29:09;;;;;;;9.98;6.70;;;;;;;14.91;100.00;100419.22;4931651;29;20032;-70
2022/05/25 01:32:09;;;;;;;13.88;6.22;;;;;;;14.91;100.00;100414.00;4931389;29;20115;-72
2022/05/25 01:34:51;;;;;;;11.25;6.80;;;;;;;14.74;100.00;100405.03;4890459;29;20061;-70
2022/05/25 01:37:22;;;;;;;11.15;6.45;;;;;;;14.89;100.00;100415.69;4893673;29;20037;-72
2022/05/25 01:39:58;;;;;;;12.32;6.10;;;;;;;14.93;100.00;100417.53;4893701;29;20052;-72
2022/05/25 01:42:39;;;;;;;10.15;6.63;;;;;;;14.91;100.00;100427.00;4893691;29;20033;-72
2022/05/25 01:45:07;;;;;;;12.63;7.20;;;;;;;14.86;100.00;100428.66;4893305;29;20048;-72
2022/05/25 01:47:35;;;;;;;10.98;6.60;;;;;;;14.79;100.00;100406.00;4893236;29;20427;-72
2022/05/25 01:50:07;;;;;;;12.65;7.05;;;;;;;14.90;100.00;100427.00;4893319;29;20083;-72
2022/05/25 01:52:54;;;;;;;11.93;6.43;;;;;;;14.63;100.00;100389.19;4893668;29;20123;-73
2022/05/25 01:55:26;;;;;;;13.52;6.00;;;;;;;14.78;100.00;100418.13;4893350;29;20123;-72
2022/05/25 01:57:57;;;;;;;13.55;5.95;;;;;;;14.32;100.00;100340.13;4922756;29;20048;-70
2022/05/25 02:00:32;;;;;;;11.10;6.43;;;;;;;14.80;100.00;100425.94;4915401;29;20483;-72
2022/05/25 02:06:08;;;;;;;10.02;6.18;;;;;;;14.73;100.00;100427.56;4930835;29;20593;-73
2022/05/25 02:08:39;;;;;;;11.07;6.10;;;;;;;14.61;100.00;100401.31;4874382;29;20608;-72
2022/05/25 02:11:30;;;;;;;8.43;5.63;;;;;;;14.65;100.00;100421.31;4881322;29;20547;-69
2022/05/25 02:14:06;;;;;;;11.32;6.63;;;;;;;14.60;100.00;100428.13;4893147;29;20507;-71
2022/05/25 02:16:52;;;;;;;10.52;6.05;;;;;;;14.60;100.00;100428.13;4892726;29;20050;-71
2022/05/25 02:19:24;;;;;;;9.45;6.43;;;;;;;14.52;100.00;100444.44;4892729;29;20036;-72
2022/05/25 02:21:56;;;;;;;9.75;6.65;;;;;;;14.23;100.00;100391.88;4892965;29;20103;-72
2022/05/25 02:24:30;;;;;;;14.38;7.05;;;;;;;14.35;100.00;100449.25;4893183;29;20531;-72
2022/05/25 02:27:09;;;;;;;14.68;6.82;;;;;;;14.22;100.00;100429.09;4892641;29;20068;-73
2022/05/25 02:29:39;;;;;;;10.17;6.40;;;;;;;14.40;100.00;100459.75;4893217;29;20153;-73
2022/05/25 02:32:16;;;;;;;10.52;6.45;;;;;;;14.44;100.00;100460.69;4892976;29;20784;-70
2022/05/25 02:34:45;;;;;;;17.33;6.82;;;;;;;14.44;100.00;100456.38;4892651;29;20546;-72
2022/05/25 02:37:11;;;;;;;;;;;;;;;14.46;100.00;100459.03;4893310;29;20033;-72
2022/05/25 02:39:37;;;;;;;8.23;6.28;;;;;;;14.50;100.00;100453.91;4877416;29;19987;-72
2022/05/25 02:42:12;;;;;;;8.40;5.72;;;;;;;14.54;100.00;100453.13;4877305;29;20076;-72
2022/05/25 02:44:38;;;;;;;10.02;5.43;;;;;;;14.59;100.00;100457.53;4901970;28;20059;-72
2022/05/25 02:47:03;;;;;;;7.68;5.80;;;;;;;14.59;100.00;100455.81;4971514;28;20470;-71
2022/05/25 02:49:29;;;;;;;10.88;6.10;;;;;;;14.40;100.00;100442.47;4971518;28;20537;-74
2022/05/25 02:51:54;;;;;;;14.25;6.18;;;;;;;14.58;100.00;100474.88;4971128;28;20027;-74
2022/05/25 02:54:22;;;;;;;12.38;6.50;;;;;;;14.51;100.00;100460.00;4971597;28;20027;-75
2022/05/25 02:56:48;;;;;;;10.85;6.90;;;;;;;14.55;100.00;100472.19;4971411;28;20034;-73
2022/05/25 02:59:14;;;;;;;10.90;6.60;;;;;;;14.43;100.00;100451.16;4971268;28;20409;-73
2022/05/25 03:01:39;;;;;;;10.48;6.07;;;;;;;14.51;100.00;100463.44;4971619;28;20035;-73
2022/05/25 03:04:05;;;;;;;11.82;6.40;;;;;;;14.46;100.00;100459.03;4957638;28;20569;-75
2022/05/25 03:06:31;;;;;;;10.90;6.53;;;;;;;14.46;100.00;100469.41;4975036;28;20101;-73
2022/05/25 03:08:56;;;;;;;9.05;5.97;;;;;;;14.49;100.00;100474.66;4975296;28;20409;-73
2022/05/25 03:11:22;;;;;;;12.88;6.63;;;;;;;14.51;100.00;100484.22;4974808;28;20121;-73
2022/05/25 03:13:48;;;;;;;10.27;6.20;;;;;;;14.39;100.00;100469.28;4974946;28;20034;-73
2022/05/25 03:16:16;;;;;;;10.55;6.60;;;;;;;14.47;100.00;100482.44;4974812;28;20547;-74
2022/05/25 03:18:43;;;;;;;10.85;6.05;;;;;;;14.41;100.00;100474.50;4957353;28;20023;-73
2022/05/25 03:21:09;;;;;;;12.13;6.35;;;;;;;14.52;100.00;100477.34;4974563;28;20031;-73
2022/05/25 03:23:35;;;;;;;9.77;6.13;;;;;;;14.39;100.00;100458.00;4924553;28;20043;-73
2022/05/25 03:26:01;;;;;;;12.57;6.18;;;;;;;14.49;100.00;100485.94;4974817;28;20074;-73
2022/05/25 03:28:26;;;;;;;7.57;6.13;;;;;;;14.56;100.00;100486.94;4984361;28;20036;-73
2022/05/25 03:30:52;;;;;;;9.07;6.40;;;;;;;14.61;100.00;100487.91;4994294;28;20033;-73
2022/05/25 03:33:17;;;;;;;9.40;6.05;;;;;;;14.50;100.00;100464.28;4996254;28;20046;-73
2022/05/25 03:35:43;;;;;;;12.85;6.38;;;;;;;14.72;100.00;100502.03;4995910;28;20034;-76
2022/05/25 03:38:09;;;;;;;10.23;5.90;;;;;;;14.74;100.00;100495.97;5013902;28;20045;-73
2022/05/25 03:40:35;;;;;;;10.32;6.15;;;;;;;14.76;100.00;100505.56;4978997;28;20049;-73
2022/05/25 03:43:00;;;;;;;11.25;6.32;;;;;;;14.65;100.00;100507.06;5013456;28;20407;-69
2022/05/25 03:45:26;;;;;;;11.00;5.85;;;;;;;14.66;100.00;100516.63;5013561;28;20080;-73
2022/05/25 03:47:52;;;;;;;10.35;6.22;;;;;;;14.39;100.00;100484.88;5013507;28;20534;-73
2022/05/25 03:50:18;;;;;;;9.93;6.00;;;;;;;14.57;100.00;100525.06;5013183;28;20033;-73
2022/05/25 03:52:44;;;;;;;9.98;6.18;;;;;;;14.51;100.00;100528.41;4978637;28;20068;-73
2022/05/25 03:55:09;;;;;;;9.90;6.38;;;;;;;14.46;100.00;100511.84;5013505;28;20061;-73
2022/05/25 03:57:35;;;;;;;10.45;6.15;;;;;;;14.68;100.00;100535.72;5013327;28;20072;-73
2022/05/25 04:00:00;;;;;;;10.80;6.22;;;;;;;14.60;100.00;100524.25;5013225;28;20022;-74
2022/05/25 04:02:26;;;;;;;8.63;5.80;;;;;;;14.39;100.00;100503.03;5013050;28;20099;-72
2022/05/25 04:05:10;;;;;;;11.07;6.10;;;;;;;14.37;100.00;100507.31;4978595;28;20034;-72
2022/05/25 04:07:44;;;;;;;12.43;5.85;;;;;;;14.59;100.00;100543.28;5013240;28;20113;-73
2022/05/25 04:10:14;;;;;;;13.20;6.38;;;;;;;14.52;100.00;100532.75;5013034;28;20028;-73
2022/05/25 04:12:42;;;;;;;11.77;6.63;;;;;;;14.58;100.00;100526.81;5012948;28;20030;-73
2022/05/25 04:15:09;;;;;;;13.85;6.00;;;;;;;14.77;100.00;100548.91;5011801;28;20480;-72
2022/05/25 04:17:35;;;;;;;13.68;6.60;;;;;;;14.74;100.00;100555.75;5013143;28;20029;-73
2022/05/25 04:20:03;;;;;;;10.35;5.60;;;;;;;14.68;100.00;100535.72;5012880;28;20033;-73
2022/05/25 04:22:29;;;;;;;9.93;5.93;;;;;;;14.59;100.00;100522.50;4995204;28;20092;-74
2022/05/25 04:24:55;;;;;;;7.43;5.53;;;;;;;14.80;100.00;100555.88;5012635;28;20052;-73
2022/05/25 04:27:21;;;;;;;10.80;5.70;;;;;;;14.55;100.00;100519.84;5012748;28;20532;-74
2022/05/25 04:29:46;;;;;;;9.02;5.55;;;;;;;14.68;100.00;100538.34;5012540;28;20068;-76
2022/05/25 04:32:11;;;;;;;11.63;5.85;;;;;;;14.86;100.00;100548.22;5013151;28;20044;-73
2022/05/25 04:34:37;;;;;;;8.65;6.57;;;;;;;14.88;100.00;100555.19;5012505;28;20265;-74
2022/05/25 04:39:47;;;;;;;14.30;6.13;;;;;;;15.03;100.00;100552.03;5012462;28;20809;-78
2022/05/25 04:42:12;;;;;;;9.02;6.35;;;;;;;15.07;100.00;100558.19;5012186;28;20030;-73
2022/05/25 04:44:38;;;;;;;11.02;5.88;;;;;;;15.03;100.00;100559.84;5012702;28;20077;-73
2022/05/25 04:47:07;;;;;;;11.70;6.60;;;;;;;14.96;100.00;100544.09;5012539;28;20022;-73
2022/05/25 04:49:33;;;;;;;8.77;6.45;;;;;;;15.11;100.00;100565.19;5012422;28;20034;-73
2022/05/25 04:51:58;;;;;;;7.65;6.00;;;;;;;15.08;100.00;100559.03;5012158;28;20484;-76
2022/05/25 04:54:23;;;;;;;12.63;6.22;;;;;;;15.13;100.00;100566.09;5012661;28;20026;-70
2022/05/25 04:59:32;;;;;;;13.02;6.25;;;;;;;15.26;100.00;100590.63;5009038;28;20064;-74
2022/05/25 05:01:59;;;;;;;11.20;5.93;;;;;;;15.33;100.00;100584.69;5012148;28;20033;-73
2022/05/25 05:04:26;;;;;;;11.90;6.25;;;;;;;15.39;100.00;100580.44;5010661;28;20124;-74
2022/05/25 05:06:52;;;;;;;18.92;7.57;;;;;;;15.40;100.00;100583.06;5012045;28;20080;-72
2022/05/25 05:09:17;;;;;;;11.00;6.60;;;;;;;15.60;100.00;100592.97;5012009;28;20026;-73
2022/05/25 05:11:47;;;;;;;20.40;6.57;;;;;;;15.43;100.00;100553.66;5012312;28;20655;-73
2022/05/25 05:14:16;;;;;;;17.92;7.38;;;;;;;15.75;100.00;100606.28;5011798;28;20412;-73
2022/05/25 05:16:44;;;;;;;14.82;6.70;;;;;;;15.69;100.00;100568.00;5011859;28;20026;-71
2022/05/25 05:19:09;;;;;;;16.05;6.35;;;;;;;15.87;100.00;100595.22;5011617;28;20030;-74
2022/05/25 05:21:35;;;;;;;14.43;5.70;;;;;;;15.93;100.00;100605.75;5011877;28;20025;-73
2022/05/25 05:24:01;;;;;;;11.05;5.97;;;;;;;15.89;100.00;100592.66;5011525;28;20034;-74
2022/05/25 05:26:26;;;;;;;6.50;4.32;;;;;;;16.07;100.00;100594.69;5011538;28;20026;-74
2022/05/25 05:28:55;;;;;;;12.02;4.72;;;;;;;16.07;100.00;100587.75;5011705;28;20030;-74
2022/05/25 05:31:20;;;;;;;7.18;4.45;;;;;;;16.09;100.00;100591.28;5011674;28;20018;-74
2022/05/25 05:33:46;;;;;;;7.18;5.50;;;;;;;16.22;100.00;100597.53;5011714;28;20026;-74
2022/05/25 05:36:18;;;;;;;10.63;5.28;;;;;;;15.77;100.00;100504.78;5011361;28;20026;-74
2022/05/25 05:39:04;;;;;;;9.52;6.03;;;;;;;16.34;100.00;100587.31;5011310;28;20145;-71
2022/05/25 05:41:36;;;;;;;8.30;5.25;;;;;;;16.38;100.00;100593.44;5011453;28;20173;-74
2022/05/25 05:44:03;;;;;;;23.08;6.15;;;;;;;16.58;100.00;100601.56;4976646;28;20132;-73
2022/05/25 05:46:29;;;;;;;9.55;4.78;;;;;;;16.63;100.00;100599.03;5011314;28;20053;-75
2022/05/25 05:48:55;;;;;;;9.02;4.45;;;;;;;16.64;100.00;100595.56;5011222;28;20040;-71
2022/05/25 05:51:21;;;;;;;7.90;5.28;;;;;;;16.73;100.00;100594.81;5011386;28;20034;-76
2022/05/25 05:53:49;;;;;;;7.60;4.53;;;;;;;16.95;100.00;100604.69;5011278;28;20036;-74
2022/05/25 05:56:15;;;;;;;7.18;4.10;;;;;;;17.00;100.00;100594.34;5011112;28;20022;-75
2022/05/25 05:58:41;;;;;;;7.05;5.20;;;;;;;17.09;100.00;100609.22;5011125;28;20026;-71
2022/05/25 06:01:06;;;;;;;6.28;3.72;;;;;;;17.22;100.00;100615.47;5011065;28;20501;-72
2022/05/25 06:03:32;;;;;;;6.88;3.67;;;;;;;17.34;100.00;100606.91;5010958;28;20037;-74
2022/05/25 06:05:57;;;;;;;8.63;4.45;;;;;;;17.17;100.00;100578.00;5011219;28;20484;-74
2022/05/25 06:08:24;;;;;;;9.05;4.30;;;;;;;17.36;100.00;100608.69;5011129;28;20495;-76
2022/05/25 06:10:50;;;;;;;6.13;4.32;;;;;;;17.44;100.00;100614.84;5010969;28;20033;-76
2022/05/25 06:13:15;;;;;;;9.43;4.32;;;;;;;17.57;100.00;100618.47;5010901;28;20113;-76
2022/05/25 06:21:16;;;;;;;9.13;4.00;;;;;;;17.89;100.00;100609.19;5011055;28;20145;-76
2022/05/25 06:23:41;;;;;;;6.38;4.47;;;;;;;17.88;100.00;100597.00;4959869;28;20073;-74
2022/05/25 06:26:07;;;;;;;7.85;3.47;;;;;;;18.06;100.00;100623.31;5011059;28;20061;-75
2022/05/25 06:28:33;;;;;;;9.02;4.07;;;;;;;18.06;100.00;100623.31;5008957;28;20076;-73
2022/05/25 06:30:59;;;;;;;8.55;4.10;;;;;;;18.10;100.00;100617.25;5007040;28;20030;-76
2022/05/25 06:33:24;;;;;;;10.32;4.45;;;;;;;18.03;100.00;100632.88;4992545;28;20116;-75
2022/05/25 06:35:50;;;;;;;7.57;4.68;;;;;;;18.13;100.00;100623.38;5009846;28;20056;-76
2022/05/25 06:38:16;;;;;;;6.85;4.30;;;;;;;18.18;100.00;100621.66;5013331;28;20014;-76
2022/05/25 06:40:41;;;;;;;6.93;4.05;;;;;;;18.07;100.00;100598.09;5014676;28;20034;-76
2022/05/25 06:43:07;;;;;;;7.65;4.05;;;;;;;18.38;100.00;100616.59;5013638;28;20386;-76
2022/05/25 06:45:32;;;;;;;7.22;4.38;;;;;;;18.49;100.00;100630.63;5014472;28;20026;-75
2022/05/25 06:47:58;;;;;;;6.30;4.00;;;;;;;18.49;100.00;100633.25;5014323;28;20092;-76
2022/05/25 06:50:25;;;;;;;13.00;4.50;;;;;;;18.41;100.00;100630.56;5007733;28;20056;-74
2022/05/25 06:52:51;;;;;;;5.97;3.90;;;;;;;18.48;100.00;100641.94;5008828;28;20096;-76
2022/05/25 06:55:17;;;;;;;5.95;4.07;;;;;;;18.47;100.00;100634.06;5012037;28;20416;-77
2022/05/25 06:57:43;;;;;;;9.00;4.10;;;;;;;18.55;100.00;100641.09;4993446;28;20022;-74
2022/05/25 07:00:28;;;;;;;5.38;3.80;;;;;;;18.64;100.00;100637.72;5014094;28;20026;-75
2022/05/25 07:02:53;;;;;;;8.40;4.07;;;;;;;18.67;100.00;100610.69;4963397;28;20039;-76
2022/05/25 07:05:19;;;;;;;6.97;3.70;;;;;;;18.84;100.00;100623.84;4959513;28;20081;-75
2022/05/25 07:07:44;;;;;;;6.63;3.90;;;;;;;18.85;100.00;100613.38;4962094;28;20062;-75
2022/05/25 07:10:10;;;;;;;6.28;4.15;;;;;;;19.05;100.00;100631.84;4958999;28;20113;-74
2022/05/25 07:12:35;;;;;;;5.68;3.78;;;;;;;19.12;100.00;100637.97;4963070;28;20494;-72
2022/05/25 07:15:01;;;;;;;10.27;3.88;;;;;;;19.14;100.00;100628.41;4962771;28;20055;-73
2022/05/25 07:17:27;;;;;;;6.80;4.05;;;;;;;19.23;100.00;100628.44;4961826;28;20611;-74
2022/05/25 07:19:53;;;;;;;8.85;4.18;;;;;;;19.02;100.00;100591.72;4958712;28;20028;-73
2022/05/25 07:22:19;;;;;;;6.93;3.90;;;;;;;19.42;100.00;100640.72;4959238;28;20038;-74
2022/05/25 07:24:44;;;;;;;6.85;3.88;;;;;;;19.42;100.00;100641.59;4956947;28;20031;-74
2022/05/25 07:27:10;;;;;;;7.00;4.00;;;;;;;19.28;100.00;100604.00;4962661;28;20041;-74
2022/05/25 07:29:36;;;;;;;7.72;3.90;;;;;;;19.59;99.27;100636.41;4962898;28;20131;-73
2022/05/25 07:32:06;;;;;;;6.75;3.85;;;;;;;19.77;98.36;100632.94;4960071;28;20038;-73
2022/05/25 07:34:37;;;;;;;10.27;4.85;;;;;;;19.81;99.83;100639.06;4998533;28;20049;-74
2022/05/25 07:37:11;;;;;;;5.60;3.60;;;;;;;19.72;95.15;100640.78;5010142;28;20030;-72
2022/05/25 07:39:45;;;;;;;4.75;3.17;;;;;;;19.77;95.85;100635.56;4993151;28;20036;-75
2022/05/25 07:42:12;;;;;;;7.72;3.70;;;;;;;19.99;94.98;100651.34;5013272;28;20022;-73
2022/05/25 07:44:43;;;;;;;7.50;3.97;;;;;;;20.11;96.00;100650.47;5010678;28;20034;-74
2022/05/25 07:47:10;;;;;;;5.57;3.95;;;;;;;20.15;91.51;100660.97;5012850;28;20489;-73
2022/05/25 07:49:36;;;;;;;7.65;3.80;;;;;;;20.17;93.81;100661.81;5012825;28;20022;-74
2022/05/25 07:52:03;;;;;;;8.15;3.42;;;;;;;20.29;91.07;100660.13;5013122;28;20080;-74
2022/05/25 07:54:29;;;;;;;5.55;3.08;;;;;;;20.44;89.34;100678.44;5013053;28;20030;-73
2022/05/25 07:56:55;;;;;;;5.30;3.50;;;;;;;20.47;92.68;100670.59;5012935;28;20048;-74
2022/05/25 07:59:21;;;;;;;5.25;3.33;;;;;;;20.51;90.88;100663.56;4994149;28;20045;-73
2022/05/25 08:07:23;;;;;;;9.05;4.53;;;;;;;20.49;94.48;100650.47;5008624;28;20123;-74
2022/05/25 08:09:51;;;;;;;5.50;3.60;;;;;;;20.65;91.70;100668.81;5012432;28;20033;-75
2022/05/25 08:12:18;;;;;;;5.28;3.13;;;;;;;20.75;91.26;100680.19;5012431;28;20033;-75
2022/05/25 08:14:44;;;;;;;4.80;3.10;;;;;;;20.89;88.06;100674.94;4953746;28;20136;-74
2022/05/25 08:17:09;;;;;;;6.47;3.30;;;;;;;21.08;86.06;100678.38;5012703;28;20508;-70
2022/05/25 08:19:35;;;;;;;5.03;3.70;;;;;;;21.20;87.47;100674.81;5012589;28;20500;-70
2022/05/25 08:22:01;;;;;;;5.88;3.50;;;;;;;21.30;89.34;100676.53;5012607;28;20021;-73
2022/05/25 08:24:29;;;;;;;4.80;2.95;;;;;;;21.48;87.06;100689.59;5012304;28;20092;-73
2022/05/25 08:26:55;;;;;;;5.97;2.90;;;;;;;21.58;85.23;100686.94;5012117;28;20125;-73
2022/05/25 08:29:24;;;;;;;4.80;3.10;;;;;;;21.35;85.83;100682.66;5012261;28;20109;-71
2022/05/25 08:31:53;;;;;;;6.32;3.58;;;;;;;21.41;91.57;100682.63;5012240;28;20436;-71
2022/05/25 08:34:18;;;;;;;6.13;2.75;;;;;;;21.49;86.46;100675.56;5012883;28;20065;-72
2022/05/25 08:36:44;;;;;;;6.97;3.47;;;;;;;21.54;88.46;100683.44;5008559;28;20026;-73
2022/05/25 08:39:09;;;;;;;6.95;4.05;;;;;;;21.69;89.07;100687.75;5012149;28;20473;-73
2022/05/25 08:41:37;;;;;;;5.57;3.50;;;;;;;21.81;87.77;100692.94;5011929;28;20033;-71
2022/05/25 08:44:04;;;;;;;5.90;3.90;;;;;;;21.96;87.09;100677.97;5009251;28;20036;-76
2022/05/25 08:46:31;;;;;;;6.72;3.92;;;;;;;21.99;87.67;100675.31;5011969;28;20026;-73
2022/05/25 08:49:02;;;;;;;6.50;4.50;;;;;;;22.01;87.19;100678.81;5011792;28;20022;-74
2022/05/25 08:51:29;;;;;;;4.90;3.80;;;;;;;22.03;88.10;100682.31;5011623;28;20026;-74
2022/05/25 08:54:00;;;;;;;5.60;4.13;;;;;;;22.20;87.11;100673.41;5011555;28;20026;-72
2022/05/25 08:56:49;;;;;;;5.60;4.07;;;;;;;22.41;85.85;100668.00;5009976;28;20033;-73
2022/05/25 08:59:25;;;;;;;7.05;4.53;;;;;;;22.58;89.54;100677.50;5010914;28;20040;-73
2022/05/25 09:02:13;;;;;;;6.03;4.88;;;;;;;22.68;90.22;100681.81;5010618;28;20030;-72
2022/05/25 09:04:58;;;;;;;5.95;5.00;;;;;;;22.74;87.10;100689.63;5011062;28;20112;-73
2022/05/25 09:07:24;;;;;;;6.90;4.78;;;;;;;22.53;84.76;100643.34;5009044;28;20037;-73
2022/05/25 09:09:51;;;;;;;5.43;4.05;;;;;;;22.97;81.55;100696.41;5011390;28;20104;-72
2022/05/25 09:12:39;;;;;;;5.53;4.57;;;;;;;23.00;82.46;100677.94;5011281;28;20518;-72
2022/05/25 09:15:10;;;;;;;4.70;3.97;;;;;;;23.16;82.03;100673.41;5009455;28;20029;-72
2022/05/25 09:17:47;;;;;;;6.45;4.28;;;;;;;23.33;81.65;100680.22;5008448;28;20033;-72
2022/05/25 09:20:17;;;;;;;6.25;4.60;;;;;;;23.38;81.67;100678.44;5008295;28;20095;-72
2022/05/25 09:22:43;;;;;;;7.35;4.95;;;;;;;22.97;80.94;100640.25;5004642;28;20508;-73
2022/05/25 09:25:13;;;;;;;4.65;3.80;;;;;;;23.06;80.96;100654.16;5011221;28;20112;-72
2022/05/25 09:27:52;;;;;;;7.60;3.70;;;;;;;22.89;80.57;100635.06;5007216;28;20476;-70
2022/05/25 09:30:18;;;;;;;5.32;4.28;;;;;;;22.89;82.21;100651.75;5002828;28;20030;-72
2022/05/25 09:32:59;;;;;;;6.60;4.32;;;;;;;23.06;81.81;100663.84;5011538;28;20037;-72
2022/05/25 09:35:38;;;;;;;8.27;4.75;;;;;;;23.16;81.05;100631.25;5011478;28;20046;-72
2022/05/25 09:38:12;;;;;;;4.80;4.07;;;;;;;23.42;80.69;100661.69;5010991;28;20021;-70
2022/05/25 09:40:53;;;;;;;7.18;4.18;;;;;;;23.47;79.69;100656.34;5011363;28;20026;-70
2022/05/25 09:43:21;;;;;;;5.85;4.70;;;;;;;23.58;80.27;100650.03;5010056;28;20027;-69
2022/05/25 09:45:50;;;;;;;6.80;6.10;;;;;;;23.69;84.52;100625.28;5008300;28;20108;-73
2022/05/25 09:48:28;;;;;;;7.72;4.93;;;;;;;23.89;81.62;100635.53;5011116;28;20327;-72
2022/05/25 09:51:15;;;;;;;6.72;5.95;;;;;;;24.22;83.37;100646.44;5009254;28;20034;-69
2022/05/25 09:54:15;;;;;;;7.43;5.20;;;;;;;24.37;79.77;100640.03;4911901;29;20036;-75
2022/05/25 09:57:16;;;;;;;5.93;5.30;;;;;;;24.55;79.77;100657.34;4855801;29;20053;-70
2022/05/25 09:59:49;;;;;;;8.70;5.75;;;;;;;24.59;79.60;100639.66;4803522;29;20491;-73
2022/05/25 10:02:24;;;;;;;5.32;4.70;;;;;;;24.87;77.60;100646.19;4819271;29;20034;-72
2022/05/25 10:04:53;;;;;;;8.80;6.35;;;;;;;24.81;78.15;100619.03;4819173;29;20046;-70
2022/05/25 10:07:18;;;;;;;7.40;5.80;;;;;;;25.18;76.04;100648.22;4818677;29;20063;-73
2022/05/25 10:09:48;;;;;;;10.55;5.85;;;;;;;25.34;75.45;100643.44;4819598;29;20072;-73
2022/05/25 10:12:47;;;;;;;8.45;5.50;;;;;;;25.42;73.66;100640.69;4818617;29;20125;-73
2022/05/25 10:15:16;;;;;;;7.57;5.18;;;;;;;25.61;73.16;100630.56;4747557;30;20059;-73
2022/05/25 10:17:47;;;;;;;9.05;6.15;;;;;;;25.46;74.42;100631.78;4747474;30;20109;-73
2022/05/25 10:20:48;;;;;;;9.30;4.95;;;;;;;25.63;74.37;100635.81;4747578;30;20040;-74
2022/05/25 10:23:22;;;;;;;9.45;6.43;;;;;;;25.31;76.47;100618.88;4745298;30;20056;-70
2022/05/25 10:25:52;;;;;;;6.82;5.55;;;;;;;25.66;74.43;100626.03;4742064;30;20060;-72
2022/05/25 10:28:40;;;;;;;6.95;6.15;;;;;;;25.83;74.86;100623.00;4744945;30;21003;-73
2022/05/25 10:37:26;;;;;;;8.32;5.18;;;;;;;26.46;71.25;100614.41;4855387;29;20045;-72
2022/05/25 10:39:54;;;;;;;7.90;4.53;;;;;;;26.55;70.03;100615.94;4787738;29;20051;-70
2022/05/25 10:42:26;;;;;;;5.82;5.30;;;;;;;26.51;70.49;100624.88;4798953;29;20543;-73
2022/05/25 10:45:13;;;;;;;6.18;5.32;;;;;;;26.34;70.47;100617.38;4798799;29;20043;-73
2022/05/25 10:47:41;;;;;;;8.27;6.05;;;;;;;26.12;72.63;100612.63;4799237;29;20034;-73
2022/05/25 10:50:32;;;;;;;6.28;5.25;;;;;;;26.29;70.55;100620.13;4799087;29;20611;-77
2022/05/25 10:53:17;;;;;;;7.18;4.93;;;;;;;26.35;69.73;100614.69;4816777;29;20034;-75
2022/05/25 10:56:22;;;;;;;7.57;5.80;;;;;;;26.40;70.01;100611.91;4817219;29;20042;-73
2022/05/25 10:58:50;;;;;;;7.40;6.60;;;;;;;26.28;75.89;100611.34;4817001;29;20058;-73
2022/05/25 11:01:45;;;;;;;7.22;6.53;;;;;;;26.29;71.96;100598.97;4817312;29;20081;-72
2022/05/25 11:04:44;;;;;;;6.82;5.07;;;;;;;26.69;69.29;100597.00;4780677;30;20035;-73
2022/05/25 11:07:27;;;;;;;10.32;5.30;;;;;;;26.76;70.19;100593.31;4783102;29;20563;-73
2022/05/25 11:10:22;;;;;;;7.72;6.93;;;;;;;26.48;74.66;100592.28;4816332;29;20498;-72
2022/05/25 11:13:22;;;;;;;6.43;5.20;;;;;;;26.70;69.94;100590.81;4835223;29;20042;-73
2022/05/25 11:15:48;;;;;;;5.28;4.72;;;;;;;26.55;71.47;100585.00;4859273;29;20037;-71
2022/05/25 11:18:56;;;;;;;6.25;4.63;;;;;;;26.41;71.29;100555.44;4871463;29;20063;-72
2022/05/25 11:21:27;;;;;;;6.53;5.60;;;;;;;26.88;70.70;100586.78;4817186;29;20038;-72
2022/05/25 11:23:55;;;;;;;7.15;5.80;;;;;;;27.27;71.21;100594.47;4818878;29;20095;-72
2022/05/25 11:27:03;;;;;;;6.32;4.65;;;;;;;27.64;67.99;100603.06;4820717;29;20038;-72
2022/05/25 11:29:59;;;;;;;7.10;4.68;;;;;;;27.75;66.93;100600.94;4820359;29;20050;-72
2022/05/25 11:33:02;;;;;;;7.47;5.28;;;;;;;27.64;66.08;100595.13;4819541;29;20522;-73
2022/05/25 11:35:33;;;;;;;8.73;4.70;;;;;;;27.39;66.29;100590.56;4819697;29;20507;-71
2022/05/25 11:38:18;;;;;;;7.65;4.45;;;;;;;27.30;68.34;100589.06;4819870;29;20103;-73
2022/05/25 11:40:59;;;;;;;5.57;5.05;;;;;;;27.11;67.12;100594.91;4838357;29;20468;-74
2022/05/25 11:43:46;;;;;;;6.20;4.78;;;;;;;27.03;67.25;100585.47;4901446;29;20050;-73
2022/05/25 11:46:16;;;;;;;7.22;5.13;;;;;;;27.36;66.88;100588.88;4932501;29;20042;-74
2022/05/25 11:49:00;;;;;;;6.32;4.65;;;;;;;27.47;65.24;100591.22;4920161;29;20142;-73
2022/05/25 11:51:49;;;;;;;8.65;5.15;;;;;;;27.70;65.35;100579.00;4921027;29;20110;-73
2022/05/25 11:54:31;;;;;;;7.72;5.60;;;;;;;27.88;64.68;100565.13;4898583;28;20571;-73
2022/05/25 11:57:07;;;;;;;7.43;5.43;;;;;;;27.64;64.46;100557.97;4951496;28;20046;-71
2022/05/25 11:59:38;;;;;;;10.70;5.88;;;;;;;27.48;65.74;100554.97;4969006;28;20445;-74
2022/05/25 12:02:18;;;;;;;6.57;5.32;;;;;;;27.74;63.98;100559.44;4951265;28;20125;-73
2022/05/25 12:05:08;;;;;;;6.03;5.30;;;;;;;27.96;63.77;100548.09;4952066;28;20204;-74
2022/05/25 12:08:05;;;;;;;6.75;5.47;;;;;;;28.25;64.31;100542.66;4904678;29;20056;-74